Vingaren — OZ2131 — position and weather

sailwx.info

Track history (hours):
 
Tides and Currents Weather Stations Pressure Air Temp Water Temp Dewpoint Dewpoint Depression Visibility Wind Speed Wind Dir Waves Ship Positions

Vingaren

Last reported at 2016-Jul-27 03:22 UTC. Time now 2016-Jul-27 05:48 UTC.
Position N 59°13' E 017°37'.

Length 89 m; draft 5.9 m.

Type: Cargo ship. MMSI: 231844000.

Date/timePositionNaut miles runAvg speedWind from/ knotsBaromVisibWave heightAir tempDewpointWater temp
2016-Jul-27 03:22N 59°13' E 017°37'7 8.3
2016-Jul-27 02:33N 59°19' E 017°32'2 2.2
2016-Jul-27 01:31N 59°20' E 017°28'0 0.0
2016-Jul-27 00:31N 59°20' E 017°28'0 0.0
2016-Jul-26 23:31N 59°20' E 017°28'0 0.0
2016-Jul-26 22:31N 59°20' E 017°28'0 0.0
2016-Jul-26 21:31N 59°20' E 017°28'0 0.0
2016-Jul-26 20:31N 59°20' E 017°28'0 0.1
2016-Jul-26 19:31N 59°20' E 017°28'1 1.1
2016-Jul-26 18:33N 59°21' E 017°28'8 8.3
2016-Jul-26 17:34N 59°27' E 017°16'8 8.0
2016-Jul-26 16:34N 59°32' E 017°04'7 6.2
2016-Jul-26 15:27N 59°30' E 016°51'  
2016-Jul-24 09:33N 59°31' E 016°45'7 6.9
2016-Jul-24 08:30N 59°31' E 016°59'7 7.7
2016-Jul-24 07:34N 59°30' E 017°13'9 8.6
2016-Jul-24 06:33N 59°24' E 017°26'4 3.7
2016-Jul-24 05:29N 59°20' E 017°28'0 0.0
2016-Jul-24 04:32N 59°20' E 017°29'0 0.0
2016-Jul-24 03:32N 59°20' E 017°29'0 0.0
2016-Jul-24 02:32N 59°20' E 017°29'0 0.0
2016-Jul-24 01:32N 59°20' E 017°28'0 0.0
2016-Jul-24 00:32N 59°20' E 017°28'0 0.0
2016-Jul-23 23:32N 59°20' E 017°28'0 0.0
2016-Jul-23 22:32N 59°20' E 017°28'0 0.0
2016-Jul-23 21:32N 59°20' E 017°28'0 0.0
2016-Jul-23 20:32N 59°20' E 017°28'0 0.0
2016-Jul-23 19:32N 59°20' E 017°28'0 0.0
2016-Jul-23 18:32N 59°20' E 017°28'1 1.5
2016-Jul-23 17:33N 59°20' E 017°31'31 7.5
2016-Jul-23 13:25N 58°49' E 017°44'8 9.4
2016-Jul-23 12:33N 58°42' E 017°52'6 5.6
2016-Jul-23 11:29N 58°36' E 017°51'172 8.0
2016-Jul-22 14:06N 55°53' E 016°12'5 9.3
2016-Jul-22 13:32N 55°51' E 016°04'10 9.2
2016-Jul-22 12:28N 55°46' E 015°49'9 9.0
2016-Jul-22 11:31N 55°41' E 015°36'9 9.2
2016-Jul-22 10:33N 55°37' E 015°22'9 9.1
2016-Jul-22 09:33N 55°32' E 015°08'9 8.9
2016-Jul-22 08:33N 55°28' E 014°55'9 8.6
2016-Jul-22 07:33N 55°24' E 014°42'17 8.5
2016-Jul-22 05:33N 55°12' E 014°20'8 8.2
2016-Jul-22 04:33N 55°11' E 014°06'9 8.6
2016-Jul-22 03:33N 55°11' E 013°51'9 8.5
2016-Jul-22 02:33N 55°12' E 013°36'9 8.7
2016-Jul-22 01:33N 55°13' E 013°21'9 8.5
2016-Jul-22 00:33N 55°14' E 013°06'9 8.8
2016-Jul-21 23:33N 55°15' E 012°51'8 8.2
2016-Jul-21 22:33N 55°19' E 012°38'9 8.5
2016-Jul-21 21:33N 55°28' E 012°41'9 8.6
2016-Jul-21 20:33N 55°36' E 012°42'8 8.0
2016-Jul-21 19:33N 55°44' E 012°41'8 7.7
2016-Jul-21 18:33N 55°52' E 012°42'3 2.9
2016-Jul-21 17:32N 55°54' E 012°46'0 0.0
2016-Jul-21 16:32N 55°54' E 012°46'0 0.0
2016-Jul-21 15:32N 55°54' E 012°46'0 0.0
2016-Jul-21 14:32N 55°54' E 012°46'0 0.0
2016-Jul-21 13:32N 55°54' E 012°46'0 0.0
2016-Jul-21 12:32N 55°54' E 012°46'0 0.0
2016-Jul-21 11:29N 55°54' E 012°46'0 0.0
2016-Jul-21 10:32N 55°54' E 012°46'0 0.0
2016-Jul-21 09:32N 55°54' E 012°46'0 0.0
2016-Jul-21 08:32N 55°54' E 012°46'0 0.0
2016-Jul-21 07:32N 55°54' E 012°46'0 0.0
2016-Jul-21 06:32N 55°54' E 012°46'0 0.0
2016-Jul-21 05:32N 55°54' E 012°46'0 0.0
2016-Jul-21 04:32N 55°54' E 012°46'0 0.0
2016-Jul-21 03:32N 55°54' E 012°46'0 0.0
2016-Jul-21 02:32N 55°54' E 012°46'0 0.0
2016-Jul-21 01:32N 55°54' E 012°46'0 0.0
2016-Jul-21 00:31N 55°54' E 012°46'0 0.0
2016-Jul-20 23:31N 55°54' E 012°46'0 0.0
2016-Jul-20 22:31N 55°54' E 012°46'0 0.0
2016-Jul-20 21:31N 55°54' E 012°46'0 0.0
2016-Jul-20 20:31N 55°54' E 012°46'0 0.0
2016-Jul-20 19:31N 55°54' E 012°46'0 0.0
2016-Jul-20 18:31N 55°54' E 012°46'0 0.0
2016-Jul-20 17:31N 55°54' E 012°46'0 0.0
2016-Jul-20 16:31N 55°54' E 012°46'0 0.0
2016-Jul-20 15:31N 55°54' E 012°46'0 0.0
2016-Jul-20 14:31N 55°54' E 012°46'0 0.0
2016-Jul-20 13:31N 55°54' E 012°46'0 0.0
2016-Jul-20 12:31N 55°54' E 012°46'0 0.0
2016-Jul-20 11:31N 55°54' E 012°46'0 0.0
2016-Jul-20 10:31N 55°54' E 012°46'0 0.0
2016-Jul-20 09:31N 55°54' E 012°46'0 0.0
2016-Jul-20 08:31N 55°54' E 012°46'0 0.0
2016-Jul-20 07:31N 55°54' E 012°46'0 0.0
2016-Jul-20 06:31N 55°54' E 012°46'0 0.0
2016-Jul-20 05:31N 55°54' E 012°46'0 0.0
2016-Jul-20 04:31N 55°54' E 012°46'0 0.0
2016-Jul-20 03:31N 55°54' E 012°46'0 0.0
2016-Jul-20 02:31N 55°54' E 012°46'0 0.0
2016-Jul-20 01:31N 55°54' E 012°46'0 0.0
2016-Jul-20 00:31N 55°54' E 012°46'0 0.0
2016-Jul-19 23:31N 55°54' E 012°46'0 0.0
2016-Jul-19 22:31N 55°54' E 012°46'0 0.0
2016-Jul-19 21:31N 55°54' E 012°46'0 0.0
2016-Jul-19 20:31N 55°54' E 012°46'0 0.1
2016-Jul-19 19:28N 55°54' E 012°46'0 0.0
2016-Jul-19 18:31N 55°54' E 012°46'0 0.0
2016-Jul-19 17:31N 55°54' E 012°46'0 0.0
2016-Jul-19 16:34N 55°54' E 012°46'0 0.0
2016-Jul-19 15:33N 55°54' E 012°46'0 0.0
2016-Jul-19 14:33N 55°54' E 012°46'0 0.0
2016-Jul-19 13:33N 55°54' E 012°46'0 0.0
2016-Jul-19 12:30N 55°54' E 012°46'0 0.0
2016-Jul-19 11:33N 55°54' E 012°46'0 0.0
2016-Jul-19 10:33N 55°54' E 012°46'0 0.0
2016-Jul-19 09:33N 55°54' E 012°46'0 0.0
2016-Jul-19 08:33N 55°54' E 012°46'0 0.0
2016-Jul-19 07:33N 55°54' E 012°46'0 0.0
2016-Jul-19 04:33N 55°54' E 012°46'0 0.0
2016-Jul-19 03:33N 55°54' E 012°46'0 0.0
2016-Jul-19 02:33N 55°54' E 012°46'0 0.0
2016-Jul-19 01:33N 55°54' E 012°46'0 0.0
2016-Jul-19 00:33N 55°54' E 012°46'0 0.0
2016-Jul-18 23:33N 55°54' E 012°46'0 0.0
2016-Jul-18 22:33N 55°54' E 012°46'0 0.0
2016-Jul-18 21:33N 55°54' E 012°46'0 0.0
2016-Jul-18 20:33N 55°54' E 012°46'0 0.0
2016-Jul-18 19:33N 55°54' E 012°46'0 0.0
2016-Jul-18 18:33N 55°54' E 012°46'0 0.1
2016-Jul-18 17:33N 55°54' E 012°46'0 0.0
2016-Jul-18 16:33N 55°54' E 012°46'0 0.1
2016-Jul-18 15:33N 55°54' E 012°46'0 0.0
2016-Jul-18 14:33N 55°54' E 012°46'0 0.0
2016-Jul-18 13:33N 55°54' E 012°46'0 0.0
2016-Jul-18 12:33N 55°54' E 012°46'0 0.0
2016-Jul-18 11:33N 55°54' E 012°46'0 0.0
2016-Jul-18 10:33N 55°54' E 012°46'0 0.0
2016-Jul-18 09:33N 55°54' E 012°46'0 0.0
2016-Jul-18 08:33N 55°54' E 012°46'0 0.0
2016-Jul-18 07:33N 55°54' E 012°46'0 0.0
2016-Jul-18 06:32N 55°54' E 012°46'0 0.0
2016-Jul-18 05:32N 55°54' E 012°46'0 0.0
2016-Jul-18 04:32N 55°54' E 012°46'0 0.0
2016-Jul-18 03:32N 55°54' E 012°46'0 0.0
2016-Jul-18 02:32N 55°54' E 012°46'0 0.0
2016-Jul-18 01:32N 55°54' E 012°46'0 0.0
2016-Jul-18 00:32N 55°54' E 012°46'0 0.0
2016-Jul-17 23:32N 55°54' E 012°46'0 0.0
2016-Jul-17 22:32N 55°54' E 012°46'0 0.0
2016-Jul-17 21:32N 55°54' E 012°46'0 0.0
2016-Jul-17 20:32N 55°54' E 012°46'0 0.0
2016-Jul-17 19:32N 55°54' E 012°46'0 0.0
2016-Jul-17 18:32N 55°54' E 012°46'0 0.0
2016-Jul-17 17:32N 55°54' E 012°46'0 0.0
2016-Jul-17 16:32N 55°54' E 012°46'0 0.0
2016-Jul-17 15:32N 55°54' E 012°46'0 0.0
2016-Jul-17 14:32N 55°54' E 012°46'0 0.0
2016-Jul-17 13:32N 55°54' E 012°46'0 0.0
2016-Jul-17 12:29N 55°54' E 012°46'0 0.0
2016-Jul-17 11:32N 55°54' E 012°46'0 0.0
2016-Jul-17 10:32N 55°54' E 012°46'0 0.0
2016-Jul-17 09:32N 55°54' E 012°46'0 0.0
2016-Jul-17 08:29N 55°54' E 012°46'0 0.0
2016-Jul-17 07:32N 55°54' E 012°46'0 0.0
2016-Jul-17 06:32N 55°54' E 012°46'0 0.0
2016-Jul-17 04:32N 55°54' E 012°46'0 0.0
2016-Jul-17 03:32N 55°54' E 012°46'  
Track history (hours):
 
Tides and Currents Weather Stations Pressure Air Temp Water Temp Dewpoint Dewpoint Depression Visibility Wind Speed Wind Dir Waves Ship Positions

Vingaren

Last reported at 2016-Jul-27 03:22 UTC. Time now 2016-Jul-27 05:48 UTC.
Position N 59°13' E 017°37'.

Length 89 m; draft 5.9 m.

Type: Cargo ship. MMSI: 231844000.

Date/timePositionNaut miles runAvg speedWind from/ knotsBaromVisibWave heightAir tempDewpointWater temp
2016-Jul-27 03:22N 59°13' E 017°37'7 8.3
2016-Jul-27 02:33N 59°19' E 017°32'2 2.2
2016-Jul-27 01:31N 59°20' E 017°28'0 0.0
2016-Jul-27 00:31N 59°20' E 017°28'0 0.0
2016-Jul-26 23:31N 59°20' E 017°28'0 0.0
2016-Jul-26 22:31N 59°20' E 017°28'0 0.0
2016-Jul-26 21:31N 59°20' E 017°28'0 0.0
2016-Jul-26 20:31N 59°20' E 017°28'0 0.1
2016-Jul-26 19:31N 59°20' E 017°28'1 1.1
2016-Jul-26 18:33N 59°21' E 017°28'8 8.3
2016-Jul-26 17:34N 59°27' E 017°16'8 8.0
2016-Jul-26 16:34N 59°32' E 017°04'7 6.2
2016-Jul-26 15:27N 59°30' E 016°51'  
2016-Jul-24 09:33N 59°31' E 016°45'7 6.9
2016-Jul-24 08:30N 59°31' E 016°59'7 7.7
2016-Jul-24 07:34N 59°30' E 017°13'9 8.6
2016-Jul-24 06:33N 59°24' E 017°26'4 3.7
2016-Jul-24 05:29N 59°20' E 017°28'0 0.0
2016-Jul-24 04:32N 59°20' E 017°29'0 0.0
2016-Jul-24 03:32N 59°20' E 017°29'0 0.0
2016-Jul-24 02:32N 59°20' E 017°29'0 0.0
2016-Jul-24 01:32N 59°20' E 017°28'0 0.0
2016-Jul-24 00:32N 59°20' E 017°28'0 0.0
2016-Jul-23 23:32N 59°20' E 017°28'0 0.0
2016-Jul-23 22:32N 59°20' E 017°28'0 0.0
2016-Jul-23 21:32N 59°20' E 017°28'0 0.0
2016-Jul-23 20:32N 59°20' E 017°28'0 0.0
2016-Jul-23 19:32N 59°20' E 017°28'0 0.0
2016-Jul-23 18:32N 59°20' E 017°28'1 1.5
2016-Jul-23 17:33N 59°20' E 017°31'31 7.5
2016-Jul-23 13:25N 58°49' E 017°44'8 9.4
2016-Jul-23 12:33N 58°42' E 017°52'6 5.6
2016-Jul-23 11:29N 58°36' E 017°51'172 8.0
2016-Jul-22 14:06N 55°53' E 016°12'5 9.3
2016-Jul-22 13:32N 55°51' E 016°04'10 9.2
2016-Jul-22 12:28N 55°46' E 015°49'9 9.0
2016-Jul-22 11:31N 55°41' E 015°36'9 9.2
2016-Jul-22 10:33N 55°37' E 015°22'9 9.1
2016-Jul-22 09:33N 55°32' E 015°08'9 8.9
2016-Jul-22 08:33N 55°28' E 014°55'9 8.6
2016-Jul-22 07:33N 55°24' E 014°42'17 8.5
2016-Jul-22 05:33N 55°12' E 014°20'8 8.2
2016-Jul-22 04:33N 55°11' E 014°06'9 8.6
2016-Jul-22 03:33N 55°11' E 013°51'9 8.5
2016-Jul-22 02:33N 55°12' E 013°36'9 8.7
2016-Jul-22 01:33N 55°13' E 013°21'9 8.5
2016-Jul-22 00:33N 55°14' E 013°06'9 8.8
2016-Jul-21 23:33N 55°15' E 012°51'8 8.2
2016-Jul-21 22:33N 55°19' E 012°38'9 8.5
2016-Jul-21 21:33N 55°28' E 012°41'9 8.6
2016-Jul-21 20:33N 55°36' E 012°42'8 8.0
2016-Jul-21 19:33N 55°44' E 012°41'8 7.7
2016-Jul-21 18:33N 55°52' E 012°42'3 2.9
2016-Jul-21 17:32N 55°54' E 012°46'0 0.0
2016-Jul-21 16:32N 55°54' E 012°46'0 0.0
2016-Jul-21 15:32N 55°54' E 012°46'0 0.0
2016-Jul-21 14:32N 55°54' E 012°46'0 0.0
2016-Jul-21 13:32N 55°54' E 012°46'0 0.0
2016-Jul-21 12:32N 55°54' E 012°46'0 0.0
2016-Jul-21 11:29N 55°54' E 012°46'0 0.0
2016-Jul-21 10:32N 55°54' E 012°46'0 0.0
2016-Jul-21 09:32N 55°54' E 012°46'0 0.0
2016-Jul-21 08:32N 55°54' E 012°46'0 0.0
2016-Jul-21 07:32N 55°54' E 012°46'0 0.0
2016-Jul-21 06:32N 55°54' E 012°46'0 0.0
2016-Jul-21 05:32N 55°54' E 012°46'0 0.0
2016-Jul-21 04:32N 55°54' E 012°46'0 0.0
2016-Jul-21 03:32N 55°54' E 012°46'0 0.0
2016-Jul-21 02:32N 55°54' E 012°46'0 0.0
2016-Jul-21 01:32N 55°54' E 012°46'0 0.0
2016-Jul-21 00:31N 55°54' E 012°46'0 0.0
2016-Jul-20 23:31N 55°54' E 012°46'0 0.0
2016-Jul-20 22:31N 55°54' E 012°46'0 0.0
2016-Jul-20 21:31N 55°54' E 012°46'0 0.0
2016-Jul-20 20:31N 55°54' E 012°46'0 0.0
2016-Jul-20 19:31N 55°54' E 012°46'0 0.0
2016-Jul-20 18:31N 55°54' E 012°46'0 0.0
2016-Jul-20 17:31N 55°54' E 012°46'0 0.0
2016-Jul-20 16:31N 55°54' E 012°46'0 0.0
2016-Jul-20 15:31N 55°54' E 012°46'0 0.0
2016-Jul-20 14:31N 55°54' E 012°46'0 0.0
2016-Jul-20 13:31N 55°54' E 012°46'0 0.0
2016-Jul-20 12:31N 55°54' E 012°46'0 0.0
2016-Jul-20 11:31N 55°54' E 012°46'0 0.0
2016-Jul-20 10:31N 55°54' E 012°46'0 0.0
2016-Jul-20 09:31N 55°54' E 012°46'0 0.0
2016-Jul-20 08:31N 55°54' E 012°46'0 0.0
2016-Jul-20 07:31N 55°54' E 012°46'0 0.0
2016-Jul-20 06:31N 55°54' E 012°46'0 0.0
2016-Jul-20 05:31N 55°54' E 012°46'0 0.0
2016-Jul-20 04:31N 55°54' E 012°46'0 0.0
2016-Jul-20 03:31N 55°54' E 012°46'0 0.0
2016-Jul-20 02:31N 55°54' E 012°46'0 0.0
2016-Jul-20 01:31N 55°54' E 012°46'0 0.0
2016-Jul-20 00:31N 55°54' E 012°46'0 0.0
2016-Jul-19 23:31N 55°54' E 012°46'0 0.0
2016-Jul-19 22:31N 55°54' E 012°46'0 0.0
2016-Jul-19 21:31N 55°54' E 012°46'0 0.0
2016-Jul-19 20:31N 55°54' E 012°46'0 0.1
2016-Jul-19 19:28N 55°54' E 012°46'0 0.0
2016-Jul-19 18:31N 55°54' E 012°46'0 0.0
2016-Jul-19 17:31N 55°54' E 012°46'0 0.0
2016-Jul-19 16:34N 55°54' E 012°46'0 0.0
2016-Jul-19 15:33N 55°54' E 012°46'0 0.0
2016-Jul-19 14:33N 55°54' E 012°46'0 0.0
2016-Jul-19 13:33N 55°54' E 012°46'0 0.0
2016-Jul-19 12:30N 55°54' E 012°46'0 0.0
2016-Jul-19 11:33N 55°54' E 012°46'0 0.0
2016-Jul-19 10:33N 55°54' E 012°46'0 0.0
2016-Jul-19 09:33N 55°54' E 012°46'0 0.0
2016-Jul-19 08:33N 55°54' E 012°46'0 0.0
2016-Jul-19 07:33N 55°54' E 012°46'0 0.0
2016-Jul-19 04:33N 55°54' E 012°46'0 0.0
2016-Jul-19 03:33N 55°54' E 012°46'0 0.0
2016-Jul-19 02:33N 55°54' E 012°46'0 0.0
2016-Jul-19 01:33N 55°54' E 012°46'0 0.0
2016-Jul-19 00:33N 55°54' E 012°46'0 0.0
2016-Jul-18 23:33N 55°54' E 012°46'0 0.0
2016-Jul-18 22:33N 55°54' E 012°46'0 0.0
2016-Jul-18 21:33N 55°54' E 012°46'0 0.0
2016-Jul-18 20:33N 55°54' E 012°46'0 0.0
2016-Jul-18 19:33N 55°54' E 012°46'0 0.0
2016-Jul-18 18:33N 55°54' E 012°46'0 0.1
2016-Jul-18 17:33N 55°54' E 012°46'0 0.0
2016-Jul-18 16:33N 55°54' E 012°46'0 0.1
2016-Jul-18 15:33N 55°54' E 012°46'0 0.0
2016-Jul-18 14:33N 55°54' E 012°46'0 0.0
2016-Jul-18 13:33N 55°54' E 012°46'0 0.0
2016-Jul-18 12:33N 55°54' E 012°46'0 0.0
2016-Jul-18 11:33N 55°54' E 012°46'0 0.0
2016-Jul-18 10:33N 55°54' E 012°46'0 0.0
2016-Jul-18 09:33N 55°54' E 012°46'0 0.0
2016-Jul-18 08:33N 55°54' E 012°46'0 0.0
2016-Jul-18 07:33N 55°54' E 012°46'0 0.0
2016-Jul-18 06:32N 55°54' E 012°46'0 0.0
2016-Jul-18 05:32N 55°54' E 012°46'0 0.0
2016-Jul-18 04:32N 55°54' E 012°46'0 0.0
2016-Jul-18 03:32N 55°54' E 012°46'0 0.0
2016-Jul-18 02:32N 55°54' E 012°46'0 0.0
2016-Jul-18 01:32N 55°54' E 012°46'0 0.0
2016-Jul-18 00:32N 55°54' E 012°46'0 0.0
2016-Jul-17 23:32N 55°54' E 012°46'0 0.0
2016-Jul-17 22:32N 55°54' E 012°46'0 0.0
2016-Jul-17 21:32N 55°54' E 012°46'0 0.0
2016-Jul-17 20:32N 55°54' E 012°46'0 0.0
2016-Jul-17 19:32N 55°54' E 012°46'0 0.0
2016-Jul-17 18:32N 55°54' E 012°46'0 0.0
2016-Jul-17 17:32N 55°54' E 012°46'0 0.0
2016-Jul-17 16:32N 55°54' E 012°46'0 0.0
2016-Jul-17 15:32N 55°54' E 012°46'0 0.0
2016-Jul-17 14:32N 55°54' E 012°46'0 0.0
2016-Jul-17 13:32N 55°54' E 012°46'0 0.0
2016-Jul-17 12:29N 55°54' E 012°46'0 0.0
2016-Jul-17 11:32N 55°54' E 012°46'0 0.0
2016-Jul-17 10:32N 55°54' E 012°46'0 0.0
2016-Jul-17 09:32N 55°54' E 012°46'0 0.0
2016-Jul-17 08:29N 55°54' E 012°46'0 0.0
2016-Jul-17 07:32N 55°54' E 012°46'0 0.0
2016-Jul-17 06:32N 55°54' E 012°46'0 0.0
2016-Jul-17 04:32N 55°54' E 012°46'0 0.0
2016-Jul-17 03:32N 55°54' E 012°46'  

Dump ship's entire track history